createdAt,value
2023-03-23T00:22:09.986Z,12.9
2023-03-23T00:51:32.162Z,12.9
2023-03-23T01:20:51.832Z,13.2
2023-03-23T01:50:18.790Z,13.6
2023-03-23T02:19:47.159Z,13.6
2023-03-23T02:49:10.186Z,13.9
2023-03-23T03:18:25.916Z,14.2
2023-03-23T03:47:42.421Z,14.4
2023-03-23T04:16:54.974Z,14.4
2023-03-23T04:45:58.739Z,14.4
2023-03-23T05:15:26.055Z,14.1
2023-03-23T05:44:46.504Z,13.9
2023-03-23T06:14:13.365Z,13.7
2023-03-23T06:43:12.011Z,13.5
2023-03-23T07:12:35.635Z,13.4
2023-03-23T07:41:56.235Z,13.4
2023-03-23T08:11:19.365Z,13.3
2023-03-23T08:40:40.524Z,13.5
2023-03-23T09:09:57.955Z,13.8
2023-03-23T09:39:17.590Z,14.8
2023-03-23T10:08:56.969Z,15.2
2023-03-23T10:37:33.221Z,15.3
2023-03-23T11:06:55.053Z,15.7
2023-03-23T11:36:17.601Z,15.8
2023-03-23T12:05:38.124Z,16
2023-03-23T12:35:00.153Z,16.4
2023-03-23T13:04:23.016Z,16.9
2023-03-23T13:33:47.036Z,17.7
2023-03-23T14:03:07.876Z,17.4
2023-03-23T14:32:31.815Z,17.1
2023-03-23T15:01:47.594Z,16.9
2023-03-23T15:31:03.655Z,16.8
2023-03-23T15:59:56.032Z,16.7
2023-03-23T16:29:40.430Z,16.6
2023-03-23T16:30:40.333Z,16.6
2023-03-23T16:59:29.544Z,16.5
2023-03-23T17:28:43.796Z,16.4
2023-03-23T17:57:53.056Z,16.4
2023-03-23T18:27:08.811Z,16.3
2023-03-23T18:56:20.841Z,16.1
2023-03-23T19:25:44.273Z,16
2023-03-23T19:54:49.851Z,16
2023-03-23T20:24:05.710Z,15.6
2023-03-23T20:53:28.375Z,15.3
2023-03-23T21:22:51.914Z,14.9
2023-03-23T21:52:02.943Z,14.6
2023-03-23T22:21:20.727Z,14.5
2023-03-23T22:50:39.661Z,14.5
2023-03-23T23:20:02.103Z,14.4
2023-03-23T23:49:22.121Z,14.9
